Enterprise — WYB2848 — position and weather

sailwx.info

Track history (hours):
 
Tides and Currents Weather Stations Pressure Air Temp Water Temp Dewpoint Dewpoint Depression Visibility Wind Speed Wind Dir Waves Ship Positions

Enterprise

Owner: SEAL BEACH ANGLERS, INC, LONG BEACH, CA. More information available from US FCC via Universal Licensing System and Coast Guard Vessel Documentation Center.

Last reported at 2017-Nov-19 00:07 UTC. Time now 2017-Nov-21 10:26 UTC.
Position N 33°46' W 118°12'.

Type: Ship. MMSI: 367095040.

Date/timePositionNaut miles runAvg speedWind from/ knotsBaromVisibWave heightAir tempDewpointWater temp
2017-Nov-19 00:07N 33°46' W 118°12'0 3.8
2017-Nov-18 23:59N 33°45' W 118°11'6 8.0
2017-Nov-18 23:15N 33°39' W 118°12'1 3.0
2017-Nov-18 22:51N 33°38' W 118°12'5 0.1
2017-Nov-16 21:28N 33°41' W 118°17'1 1.6
2017-Nov-16 20:47N 33°40' W 118°18'2 8.4
2017-Nov-16 20:30N 33°37' W 118°17'1 2.1
2017-Nov-16 20:00N 33°37' W 118°16'1 1.9
2017-Nov-16 19:30N 33°36' W 118°15'2 3.9
2017-Nov-16 18:54N 33°36' W 118°13'4 2.5
2017-Nov-16 17:25N 33°34' W 118°09'  
Track history (hours):
 
Tides and Currents Weather Stations Pressure Air Temp Water Temp Dewpoint Dewpoint Depression Visibility Wind Speed Wind Dir Waves Ship Positions

Enterprise

Owner: SEAL BEACH ANGLERS, INC, LONG BEACH, CA. More information available from US FCC via Universal Licensing System and Coast Guard Vessel Documentation Center.

Last reported at 2017-Nov-19 00:07 UTC. Time now 2017-Nov-21 10:26 UTC.
Position N 33°46' W 118°12'.

Type: Ship. MMSI: 367095040.

Date/timePositionNaut miles runAvg speedWind from/ knotsBaromVisibWave heightAir tempDewpointWater temp
2017-Nov-19 00:07N 33°46' W 118°12'0 3.8
2017-Nov-18 23:59N 33°45' W 118°11'6 8.0
2017-Nov-18 23:15N 33°39' W 118°12'1 3.0
2017-Nov-18 22:51N 33°38' W 118°12'5 0.1
2017-Nov-16 21:28N 33°41' W 118°17'1 1.6
2017-Nov-16 20:47N 33°40' W 118°18'2 8.4
2017-Nov-16 20:30N 33°37' W 118°17'1 2.1
2017-Nov-16 20:00N 33°37' W 118°16'1 1.9
2017-Nov-16 19:30N 33°36' W 118°15'2 3.9
2017-Nov-16 18:54N 33°36' W 118°13'4 2.5
2017-Nov-16 17:25N 33°34' W 118°09'  

Dump ship's entire track history